KBDR/BDR METAR and TAF weather

Enter ICAO airport designator
Station Type Date Time Source
KBDR METAR 2018/01/24 06:52 UTC NOAA

KBDR 240652Z AUTO 24006KT 10SM CLR 04/M01 A2971 RMK AO2 SLP059 T00391006


Station Type Date Time Source
KBDR Decoded METAR 2018/01/24 06:52 UTC NOAA

SIKORSKY MEMORIAL AIRPORT, CT, United States (KBDR) 41-10N 073-08W 7M
Jan 24, 2018 - 01:52 AM EST / 2018.01.24 0652 UTC
Wind: from the WSW (240 degrees) at 7 MPH (6 KT):0
Visibility: 10 mile(s):0
Sky conditions: clear
Temperature: 39.0 F (3.9 C)
Dew Point: 30.9 F (-0.6 C)
Relative Humidity: 72%
Pressure (altimeter): 29.71 in. Hg (1006 hPa)
ob: KBDR 240652Z AUTO 24006KT 10SM CLR 04/M01 A2971 RMK AO2 SLP059 T00391006
cycle: 7

Station Type Date Time Source
KBDR TAF 2018/01/24 06:22 UTC NOAA

TAF KBDR 240520Z 2406/2506 27008KT P6SM SKC
FM241000 26008G15KT P6SM SKC
FM241400 28013G20KT P6SM SCT035
FM242000 29012G19KT P6SM FEW250
FM242300 30009KT P6SM FEW250
FM250300 33007KT P6SM SCT250


Example: see airport list